Time;durP1;ratioP1;P1;durP2;ratioP2;P2;SDS_P1;SDS_P2;PMS_P1;PMS_P2;Temp;Humidity;BMP_temperature;BMP_pressure;BME280_temperature;BME280_humidity;BME280_pressure;Samples;Min_cycle;Max_cycle;Signal;HPM_P1;HPM_P2
2022/01/19 00:02:14;;;;;;;6.70;4.53;;;;;;;1.04;58.86;100992.28;5065499;28;20111;-65
2022/01/19 00:04:47;;;;;;;11.05;5.63;;;;;;;1.02;59.46;100994.00;5065975;28;20293;-65
2022/01/19 00:07:19;;;;;;;10.07;4.70;;;;;;;1.00;59.15;100990.50;5064713;28;20277;-65
2022/01/19 00:09:51;;;;;;;7.68;4.88;;;;;;;0.96;59.30;100973.94;5065406;28;20228;-65
2022/01/19 00:12:23;;;;;;;12.93;5.43;;;;;;;0.96;59.07;100978.28;5065712;28;20251;-65
2022/01/19 00:14:57;;;;;;;24.70;17.30;;;;;;;0.93;59.17;100987.84;5065711;28;20182;-65
2022/01/19 00:17:30;;;;;;;34.97;22.80;;;;;;;1.01;59.86;100987.03;5065794;28;20224;-64
2022/01/19 00:20:05;;;;;;;28.90;17.15;;;;;;;1.00;60.22;100985.28;5065854;28;20041;-65
2022/01/19 00:22:38;;;;;;;16.67;11.93;;;;;;;1.00;59.85;100987.91;5065236;28;20043;-65
2022/01/19 00:25:12;;;;;;;16.33;9.98;;;;;;;0.99;60.13;100988.75;5065101;28;20300;-65
2022/01/19 00:27:46;;;;;;;10.30;7.40;;;;;;;-5.65;59.27;99840.66;5065106;28;20056;-65
2022/01/19 00:30:20;;;;;;;10.20;7.13;;;;;;;1.06;59.47;100999.28;5065567;28;20045;-65
2022/01/19 00:32:54;;;;;;;11.70;6.97;;;;;;;1.05;59.45;101002.75;5065764;28;20061;-66
2022/01/19 00:35:26;;;;;;;9.30;5.43;;;;;;;0.68;59.47;100936.25;5064592;28;20044;-65
2022/01/19 00:37:54;;;;;;;7.47;5.18;;;;;;;0.99;59.55;101004.41;5047816;28;20194;-65
2022/01/19 00:40:24;;;;;;;7.22;3.72;;;;;;;0.63;59.76;100987.50;5065426;28;20053;-65
2022/01/19 00:42:53;;;;;;;6.95;4.75;;;;;;;-0.27;60.10;100821.34;5065276;28;20355;-65
2022/01/19 00:45:26;;;;;;;10.73;4.10;;;;;;;0.89;59.98;100985.19;5064917;28;20362;-65
2022/01/19 00:47:54;;;;;;;5.88;3.80;;;;;;;0.82;60.04;100991.19;5065187;28;20057;-65
2022/01/19 00:50:27;;;;;;;9.68;4.72;;;;;;;0.83;59.74;100988.59;5065610;28;20061;-65
2022/01/19 00:52:59;;;;;;;7.95;4.18;;;;;;;0.84;59.96;100982.53;5065437;28;20049;-65
2022/01/19 00:55:29;;;;;;;7.07;5.05;;;;;;;0.90;59.50;100976.47;5065383;28;20196;-65
2022/01/19 00:57:59;;;;;;;5.03;3.30;;;;;;;0.87;59.62;100977.34;5065217;28;20037;-65
2022/01/19 01:00:32;;;;;;;9.85;4.47;;;;;;;0.83;60.04;100975.56;5065346;28;20064;-64
2022/01/19 01:02:59;;;;;;;7.45;4.47;;;;;;;0.80;59.93;100967.69;5064736;28;20089;-65
2022/01/19 01:05:30;;;;;;;7.30;4.78;;;;;;;0.77;59.76;100967.66;5064741;28;20041;-64
2022/01/19 01:08:00;;;;;;;9.60;4.53;;;;;;;0.68;59.85;100940.59;5064049;28;20040;-64
2022/01/19 01:10:31;;;;;;;11.25;4.72;;;;;;;0.80;59.68;100952.03;5065046;28;20087;-64
2022/01/19 01:13:17;;;;;;;8.55;5.15;;;;;;;0.79;59.74;100954.63;5068377;28;20029;-65
2022/01/19 01:16:02;;;;;;;8.38;4.38;;;;;;;-0.17;60.10;100800.63;5068975;28;20121;-64
2022/01/19 01:18:35;;;;;;;8.25;4.50;;;;;;;0.71;60.34;100953.66;5068902;28;20053;-64
2022/01/19 01:21:08;;;;;;;8.85;4.47;;;;;;;-0.40;59.92;100776.03;5069128;28;20045;-65
2022/01/19 01:23:40;;;;;;;6.50;4.22;;;;;;;0.64;60.46;100944.03;5068726;28;20077;-64
2022/01/19 01:26:13;;;;;;;10.70;4.65;;;;;;;0.70;59.89;100931.03;5068460;28;20044;-65
2022/01/19 01:28:45;;;;;;;6.93;4.45;;;;;;;0.72;60.01;100932.81;5068343;28;20195;-64
2022/01/19 01:31:19;;;;;;;5.55;4.30;;;;;;;0.69;60.34;100927.56;5068293;28;20078;-64
2022/01/19 01:33:51;;;;;;;8.30;4.60;;;;;;;0.69;60.01;100917.13;5068382;28;20061;-64
2022/01/19 01:36:25;;;;;;;12.02;4.75;;;;;;;0.27;60.72;100850.63;5067571;28;20045;-65
2022/01/19 01:38:57;;;;;;;7.43;4.75;;;;;;;0.52;60.86;100892.59;5068503;28;20251;-64
2022/01/19 01:41:31;;;;;;;8.00;4.03;;;;;;;0.49;61.13;100889.97;5068399;28;20300;-64
2022/01/19 01:44:03;;;;;;;8.80;4.63;;;;;;;0.50;60.70;100883.88;5068288;28;20045;-65
2022/01/19 01:46:45;;;;;;;8.95;4.53;;;;;;;0.52;60.74;100877.81;5067847;28;20338;-65
2022/01/19 01:49:24;;;;;;;9.00;4.45;;;;;;;0.50;61.00;100887.38;5068370;28;20041;-65
2022/01/19 01:54:47;;;;;;;8.10;4.40;;;;;;;0.49;61.07;100883.00;5068189;28;20049;-65
2022/01/19 01:57:19;;;;;;;6.93;3.97;;;;;;;0.48;60.92;100875.16;5068258;28;20041;-65
2022/01/19 01:59:52;;;;;;;8.68;3.90;;;;;;;0.52;60.66;100880.44;5068333;28;20091;-66
2022/01/19 02:02:25;;;;;;;9.57;4.45;;;;;;;0.08;60.88;100785.25;5067797;28;20190;-66
2022/01/19 02:04:58;;;;;;;6.70;4.07;;;;;;;0.57;60.67;100860.47;5067790;28;20049;-65
2022/01/19 02:07:41;;;;;;;9.05;4.85;;;;;;;0.57;60.69;100849.16;5067127;28;20036;-66
2022/01/19 02:10:30;;;;;;;5.20;3.90;;;;;;;0.56;60.90;100847.41;5067717;28;20048;-65
2022/01/19 02:16:09;;;;;;;9.68;4.38;;;;;;;0.51;61.40;100836.94;5067939;28;20045;-66
2022/01/19 02:21:40;;;;;;;7.40;4.25;;;;;;;0.50;60.99;100829.09;5067088;28;20037;-65
2022/01/19 02:24:14;;;;;;;8.05;3.72;;;;;;;-0.76;60.63;100610.72;5066899;28;20036;-65
2022/01/19 02:26:59;;;;;;;;;;;;;;;0.42;62.00;100828.16;5067681;28;20045;-64
2022/01/19 02:40:57;;;;;;;8.82;4.75;;;;;;;0.40;61.02;100809.00;5067254;28;20037;-65
2022/01/19 02:43:29;;;;;;;9.32;4.53;;;;;;;0.06;61.03;100745.25;5067127;28;20280;-63
2022/01/19 02:49:15;;;;;;;9.32;4.25;;;;;;;0.33;61.29;100799.38;5067101;28;20056;-64
2022/01/19 02:51:49;;;;;;;9.45;4.93;;;;;;;0.17;62.17;100798.38;5067224;28;20243;-64
2022/01/19 02:54:24;;;;;;;6.17;4.10;;;;;;;0.15;61.97;100790.53;5067008;28;20091;-63
2022/01/19 02:57:00;;;;;;;11.20;5.03;;;;;;;0.13;61.66;100789.63;5067385;28;20426;-64
2022/01/19 02:59:44;;;;;;;6.80;4.45;;;;;;;-1.20;61.56;100622.31;5067385;28;20048;-64
2022/01/19 03:10:48;;;;;;;9.82;5.03;;;;;;;0.07;61.95;100779.16;5066725;28;20251;-63
2022/01/19 03:13:21;;;;;;;10.95;4.85;;;;;;;-0.02;62.15;100784.28;5066916;28;20041;-63
2022/01/19 03:15:53;;;;;;;8.07;5.28;;;;;;;-0.05;62.26;100779.91;5066499;28;20049;-63
2022/01/19 03:18:25;;;;;;;8.98;5.78;;;;;;;-0.20;62.44;100753.69;5066445;28;20037;-63
2022/01/19 03:20:57;;;;;;;6.63;3.95;;;;;;;-0.04;62.04;100762.53;5066120;28;20224;-63
2022/01/19 03:23:29;;;;;;;7.53;4.43;;;;;;;-0.05;62.07;100759.06;5066357;28;20045;-63
2022/01/19 03:26:06;;;;;;;10.30;5.10;;;;;;;-0.10;62.37;100755.53;5066219;28;20041;-63
2022/01/19 03:28:38;;;;;;;8.70;4.40;;;;;;;-1.17;62.55;100622.34;5066365;28;20041;-63
2022/01/19 03:31:10;;;;;;;7.60;4.50;;;;;;;-0.13;62.55;100749.41;5066230;28;20063;-64
2022/01/19 03:33:44;;;;;;;10.68;5.00;;;;;;;-0.50;62.63;100686.50;5065872;28;20087;-66
2022/01/19 03:36:17;;;;;;;9.30;4.97;;;;;;;-0.14;62.51;100748.53;5064253;28;20045;-65
2022/01/19 03:38:49;;;;;;;9.23;4.53;;;;;;;-0.23;63.59;100763.19;5065902;28;20197;-65
2022/01/19 03:41:23;;;;;;;8.82;5.20;;;;;;;-0.34;63.58;100757.00;5065951;28;20330;-65
2022/01/19 03:43:55;;;;;;;9.70;4.43;;;;;;;-0.49;63.73;100747.28;5065746;28;20243;-65
2022/01/19 03:46:33;;;;;;;12.75;4.88;;;;;;;-0.92;64.11;100694.69;5065168;28;20041;-65
2022/01/19 03:49:13;;;;;;;8.88;4.60;;;;;;;-0.62;64.16;100742.78;5065643;28;20086;-65
2022/01/19 03:51:45;;;;;;;11.32;5.20;;;;;;;-0.60;63.63;100748.88;5065613;28;20064;-65
2022/01/19 03:54:17;;;;;;;8.25;5.20;;;;;;;-0.67;63.83;100732.31;5065547;28;20045;-65
2022/01/19 03:56:51;;;;;;;6.43;4.53;;;;;;;-0.60;63.37;100739.34;5064748;28;20045;-65
2022/01/19 03:59:23;;;;;;;9.83;4.20;;;;;;;-0.56;63.35;100725.50;5065896;28;20041;-65
2022/01/19 04:01:57;;;;;;;9.15;4.00;;;;;;;-0.56;63.24;100729.81;5065170;28;20115;-65
2022/01/19 04:04:41;;;;;;;6.70;4.40;;;;;;;-0.62;63.48;100730.63;5065713;28;20083;-65
2022/01/19 04:07:14;;;;;;;8.77;4.45;;;;;;;-1.15;63.92;100691.75;5065668;28;20041;-65
2022/01/19 04:09:47;;;;;;;8.38;5.45;;;;;;;-0.64;63.95;100723.66;5065381;28;20350;-65
2022/01/19 04:12:40;;;;;;;11.25;5.70;;;;;;;-0.67;64.15;100727.09;5065686;28;20096;-65
2022/01/19 04:15:15;;;;;;;9.90;5.35;;;;;;;-2.20;64.13;100494.47;5065594;28;20177;-65
2022/01/19 04:17:51;;;;;;;7.97;5.53;;;;;;;-0.84;64.73;100728.63;5065612;28;20041;-65
2022/01/19 04:20:25;;;;;;;7.95;4.82;;;;;;;-0.85;64.65;100713.84;5065507;28;20083;-65
2022/01/19 04:22:58;;;;;;;8.63;4.75;;;;;;;-0.78;63.83;100713.06;5065243;28;20045;-65
2022/01/19 04:25:28;;;;;;;11.43;5.47;;;;;;;-0.77;64.07;100704.41;5065176;28;20044;-65
2022/01/19 04:28:01;;;;;;;6.70;4.50;;;;;;;-0.75;63.91;100703.56;5065473;28;20037;-65
2022/01/19 04:30:34;;;;;;;9.32;4.90;;;;;;;-0.74;63.75;100694.91;5065264;28;20041;-65
2022/01/19 04:33:09;;;;;;;9.20;6.35;;;;;;;-0.71;64.14;100686.25;5064719;28;20051;-65
2022/01/19 04:35:49;;;;;;;12.40;5.20;;;;;;;-0.74;64.04;100679.28;5065442;28;20045;-65
2022/01/19 04:44:30;;;;;;;7.45;5.25;;;;;;;-0.74;63.99;100665.41;5065117;28;20095;-65
2022/01/19 05:01:44;;;;;;;9.95;5.22;;;;;;;-0.70;63.77;100648.97;5032654;28;20061;-65
2022/01/19 05:04:29;;;;;;;7.85;4.88;;;;;;;-0.70;63.91;100643.75;5068677;28;20045;-65
2022/01/19 05:07:13;;;;;;;8.82;5.75;;;;;;;-0.73;64.11;100648.94;5068704;28;20049;-65
2022/01/19 05:15:27;;;;;;;7.78;4.50;;;;;;;-0.76;64.03;100641.06;5068556;28;20063;-65
2022/01/19 05:17:58;;;;;;;8.93;6.03;;;;;;;-0.75;63.80;100643.69;5068477;28;20048;-65
2022/01/19 05:20:27;;;;;;;11.85;5.50;;;;;;;-0.72;63.82;100658.47;5068725;28;20069;-65
2022/01/19 05:22:57;;;;;;;9.25;5.68;;;;;;;-0.79;64.19;100656.66;5068175;28;20063;-65
2022/01/19 05:25:27;;;;;;;8.40;4.40;;;;;;;-1.12;64.24;100599.84;5068558;28;20040;-65
2022/01/19 05:27:57;;;;;;;9.68;5.32;;;;;;;-0.81;64.19;100653.16;5068415;28;20124;-65
2022/01/19 05:30:27;;;;;;;7.68;4.63;;;;;;;-0.79;63.80;100651.47;5068771;28;20208;-65
2022/01/19 05:32:59;;;;;;;8.95;4.80;;;;;;;-0.78;64.47;100653.22;5068431;28;20090;-65
2022/01/19 05:35:29;;;;;;;11.55;5.10;;;;;;;-1.16;64.31;100604.16;5068598;28;20037;-65
2022/01/19 05:37:58;;;;;;;12.55;6.47;;;;;;;-0.83;64.20;100652.28;5068082;28;20257;-65
2022/01/19 05:40:28;;;;;;;13.32;6.80;;;;;;;-0.83;64.35;100649.69;5068271;28;20037;-65
2022/01/19 05:42:58;;;;;;;9.75;5.75;;;;;;;-1.17;64.29;100605.00;5068155;28;20029;-65
2022/01/19 05:45:28;;;;;;;11.73;5.18;;;;;;;-0.86;64.91;100645.31;5067895;28;20036;-65
2022/01/19 05:48:00;;;;;;;12.52;6.63;;;;;;;-0.85;64.83;100631.44;5068155;28;20067;-65
2022/01/19 05:50:29;;;;;;;10.85;6.60;;;;;;;-0.85;64.64;100643.56;5067606;28;20067;-65
2022/01/19 05:52:59;;;;;;;9.73;5.57;;;;;;;-0.87;65.25;100637.47;5068069;28;20041;-65
2022/01/19 05:55:29;;;;;;;9.85;6.88;;;;;;;-0.88;64.56;100641.81;5067971;28;20044;-65
2022/01/19 05:58:00;;;;;;;12.90;7.22;;;;;;;-0.87;64.66;100643.56;5067214;28;20071;-65
2022/01/19 06:00:29;;;;;;;10.23;6.90;;;;;;;-0.86;64.85;100642.72;5067513;28;20074;-65
2022/01/19 06:03:01;;;;;;;8.88;5.40;;;;;;;-0.89;64.62;100634.00;5067403;28;20063;-65
2022/01/19 06:05:29;;;;;;;11.73;5.25;;;;;;;-0.90;65.04;100634.84;5067815;28;20302;-65
2022/01/19 06:08:16;;;;;;;9.32;5.07;;;;;;;-1.37;65.54;100554.47;5067637;28;20334;-65
2022/01/19 06:10:54;;;;;;;10.65;5.32;;;;;;;-0.95;64.90;100634.78;5067659;28;20044;-65
2022/01/19 06:13:26;;;;;;;14.38;7.22;;;;;;;-0.95;64.98;100624.38;5067556;28;20169;-65
2022/01/19 06:15:58;;;;;;;10.75;6.43;;;;;;;-1.01;65.98;100630.34;5067680;28;20041;-65
2022/01/19 06:18:34;;;;;;;11.05;6.15;;;;;;;-1.98;65.56;100501.72;5067352;28;20083;-65
2022/01/19 06:21:06;;;;;;;10.70;6.45;;;;;;;-1.05;65.63;100625.97;5067586;28;20037;-66
2022/01/19 06:23:39;;;;;;;9.13;6.03;;;;;;;-1.05;65.15;100625.97;5067666;28;20083;-65
2022/01/19 06:26:11;;;;;;;11.00;6.60;;;;;;;-1.34;65.04;100565.78;5068670;28;20091;-65
2022/01/19 06:28:43;;;;;;;10.43;6.32;;;;;;;-1.08;65.82;100627.66;5068192;28;20045;-65
2022/01/19 06:31:16;;;;;;;14.13;6.93;;;;;;;-1.05;65.14;100622.50;5067313;28;20200;-65
2022/01/19 06:33:49;;;;;;;12.52;6.22;;;;;;;-1.06;65.21;100621.63;5067402;28;20296;-65
2022/01/19 06:36:21;;;;;;;10.23;6.22;;;;;;;-1.06;65.19;100608.63;5067273;28;20072;-65
2022/01/19 06:38:54;;;;;;;13.63;7.47;;;;;;;-1.08;65.11;100612.06;5066956;28;20041;-65
2022/01/19 06:41:26;;;;;;;12.70;6.32;;;;;;;-1.32;65.33;100563.22;5067220;28;20067;-65
2022/01/19 06:43:59;;;;;;;11.82;5.68;;;;;;;-1.07;65.15;100609.47;5066885;28;20037;-65
2022/01/19 06:46:31;;;;;;;13.50;7.35;;;;;;;-1.37;65.13;100547.53;5066824;28;20045;-65
2022/01/19 06:49:05;;;;;;;10.20;7.00;;;;;;;-1.04;65.13;100593.88;5066857;28;20045;-65
2022/01/19 06:51:37;;;;;;;11.63;6.28;;;;;;;-1.06;65.06;100595.59;5066768;28;20045;-65
2022/01/19 06:54:09;;;;;;;14.95;7.13;;;;;;;-1.06;65.35;100611.22;5066719;28;20045;-65
2022/01/19 06:56:42;;;;;;;12.57;6.55;;;;;;;-1.05;65.47;100596.47;5066603;28;20049;-65
2022/01/19 06:59:14;;;;;;;10.88;6.72;;;;;;;-1.65;65.14;100483.06;5066668;28;20095;-65
2022/01/19 07:01:46;;;;;;;10.68;6.53;;;;;;;-1.00;65.23;100584.44;5066248;28;20071;-66
2022/01/19 07:04:20;;;;;;;9.80;7.38;;;;;;;-1.01;65.34;100580.03;5066453;28;20040;-65
2022/01/19 07:06:52;;;;;;;12.98;8.35;;;;;;;-1.02;65.92;100586.97;5066655;28;20037;-65
2022/01/19 07:09:24;;;;;;;10.18;7.55;;;;;;;-0.98;65.29;100589.66;5066475;28;20041;-65
2022/01/19 07:11:57;;;;;;;14.50;7.63;;;;;;;-0.98;65.45;100587.03;5066296;28;20049;-65
2022/01/19 07:14:29;;;;;;;13.48;6.88;;;;;;;-0.95;65.47;100577.53;5066339;28;20071;-65
2022/01/19 07:17:01;;;;;;;11.63;6.70;;;;;;;-0.95;65.69;100579.28;5066174;28;20083;-65
2022/01/19 07:19:35;;;;;;;11.43;7.13;;;;;;;-0.91;65.52;100581.91;5066440;28;20041;-65
2022/01/19 07:22:07;;;;;;;11.73;6.90;;;;;;;-1.22;65.08;100517.38;5066317;28;20083;-65
2022/01/19 07:24:39;;;;;;;15.27;7.90;;;;;;;-0.86;64.97;100566.34;5066262;28;20342;-65
2022/01/19 07:27:11;;;;;;;19.17;9.02;;;;;;;-0.86;65.74;100576.75;5066261;28;20110;-65
2022/01/19 07:29:44;;;;;;;12.98;8.43;;;;;;;-0.83;65.42;100571.59;5065418;28;20040;-65
2022/01/19 07:32:16;;;;;;;12.35;7.72;;;;;;;-1.78;65.63;100424.00;5066143;28;20296;-65
2022/01/19 07:34:49;;;;;;;11.00;7.80;;;;;;;-0.79;66.62;100562.94;5066086;28;20041;-65
2022/01/19 07:37:22;;;;;;;14.38;7.13;;;;;;;-0.76;65.72;100566.47;5066100;28;20048;-65
2022/01/19 07:39:54;;;;;;;11.90;7.80;;;;;;;-1.15;65.58;100675.28;5065816;28;20087;-65
2022/01/19 07:42:27;;;;;;;17.83;8.82;;;;;;;-0.72;65.67;100565.63;5065904;28;20040;-65
2022/01/19 07:44:59;;;;;;;15.35;7.20;;;;;;;-0.68;66.14;100561.31;5066027;28;20041;-65
2022/01/19 07:47:31;;;;;;;16.17;8.95;;;;;;;-0.61;65.78;100555.31;5065883;28;20296;-65
2022/01/19 07:50:06;;;;;;;15.60;7.45;;;;;;;-0.50;65.88;100561.50;5066157;28;20040;-65
2022/01/19 07:52:39;;;;;;;13.55;7.40;;;;;;;-0.41;65.49;100556.34;5065659;28;20346;-65
2022/01/19 07:55:11;;;;;;;19.88;8.60;;;;;;;-0.29;66.47;100552.09;5065402;28;20086;-65
2022/01/19 07:57:47;;;;;;;17.83;9.05;;;;;;;-0.13;65.63;100556.56;5065399;28;20049;-65
2022/01/19 08:00:20;;;;;;;16.88;7.57;;;;;;;0.03;64.98;100552.34;5065330;28;20045;-65
2022/01/19 08:02:52;;;;;;;11.80;7.40;;;;;;;0.22;64.83;100548.97;5065066;28;20086;-65
2022/01/19 08:05:27;;;;;;;13.77;7.97;;;;;;;0.40;64.57;100532.56;5065562;28;20041;-66
2022/01/19 08:07:59;;;;;;;13.82;8.45;;;;;;;0.60;64.64;100526.56;5065475;28;20041;-65
2022/01/19 08:10:31;;;;;;;15.02;8.15;;;;;;;0.56;63.81;100496.09;5065350;28;20040;-65
2022/01/19 08:13:03;;;;;;;15.55;8.75;;;;;;;1.07;63.47;100517.13;5065542;28;20047;-65
2022/01/19 08:15:32;;;;;;;15.00;8.38;;;;;;;1.25;62.97;100517.13;5064646;28;20114;-65
2022/01/19 08:18:02;;;;;;;16.10;7.68;;;;;;;1.43;62.18;100517.16;5065371;28;20090;-65
2022/01/19 08:20:33;;;;;;;9.18;6.70;;;;;;;1.61;62.53;100516.31;5065240;28;20277;-65
2022/01/19 08:23:03;;;;;;;10.75;6.47;;;;;;;1.83;61.44;100514.56;5064198;28;20037;-65
2022/01/19 08:25:32;;;;;;;14.40;7.85;;;;;;;2.06;61.32;100518.00;5065123;28;20037;-64
2022/01/19 08:28:02;;;;;;;13.63;7.43;;;;;;;1.90;60.59;100456.16;5065372;28;20041;-65
2022/01/19 08:30:32;;;;;;;11.95;8.00;;;;;;;2.41;60.93;100522.25;5065380;28;20100;-64
2022/01/19 08:33:02;;;;;;;11.43;7.70;;;;;;;2.61;60.53;100493.38;5065040;28;20033;-64
2022/01/19 08:35:34;;;;;;;8.93;7.13;;;;;;;2.74;59.88;100485.47;5065547;28;20029;-64
2022/01/19 08:38:03;;;;;;;14.15;8.20;;;;;;;2.93;59.24;100485.34;5065083;28;20063;-65
2022/01/19 08:40:34;;;;;;;11.70;7.05;;;;;;;2.74;59.12;100429.63;5064928;28;20060;-65
2022/01/19 08:43:03;;;;;;;17.10;8.55;;;;;;;3.24;58.81;100473.78;5064931;28;20041;-65
2022/01/19 08:45:35;;;;;;;14.18;7.57;;;;;;;3.34;58.34;100469.34;5065107;28;20041;-65
2022/01/19 08:48:03;;;;;;;13.50;8.25;;;;;;;3.48;58.11;100473.59;5065033;28;20099;-65
2022/01/19 08:50:35;;;;;;;16.48;9.75;;;;;;;3.27;57.67;100426.59;5065026;28;20037;-65
2022/01/19 08:53:04;;;;;;;16.08;9.45;;;;;;;3.62;57.92;100465.59;5064783;28;20049;-65
2022/01/19 08:55:33;;;;;;;15.15;9.45;;;;;;;3.72;57.63;100464.63;5064800;28;20064;-65
2022/01/19 08:58:04;;;;;;;20.58;10.50;;;;;;;3.77;57.52;100456.72;5065075;28;20029;-65
2022/01/19 09:00:35;;;;;;;19.50;10.05;;;;;;;3.98;57.18;100448.63;5064755;28;20379;-65
2022/01/19 09:03:04;;;;;;;18.42;9.10;;;;;;;3.98;56.74;100451.25;5064479;28;20178;-65
2022/01/19 09:05:35;;;;;;;14.55;8.88;;;;;;;4.08;56.48;100446.75;5064868;28;20037;-65
2022/01/19 09:08:05;;;;;;;17.20;10.35;;;;;;;4.17;56.73;100447.53;5064706;28;20045;-65
2022/01/19 09:10:34;;;;;;;10.55;7.57;;;;;;;3.65;56.30;100325.75;5064689;28;20040;-65
2022/01/19 09:13:04;;;;;;;13.20;9.40;;;;;;;4.56;55.49;100441.81;5064714;28;20029;-65
2022/01/19 09:15:35;;;;;;;18.33;11.10;;;;;;;4.55;55.67;100437.47;5064675;28;20037;-66
2022/01/19 09:18:05;;;;;;;20.10;10.45;;;;;;;4.60;54.64;100433.88;5064336;28;20044;-64
2022/01/19 09:20:36;;;;;;;14.43;8.63;;;;;;;4.35;54.35;100377.34;5064713;28;20047;-64
2022/01/19 09:23:05;;;;;;;14.07;6.65;;;;;;;4.73;53.99;100426.69;5064755;28;20045;-64
2022/01/19 09:25:35;;;;;;;12.40;6.50;;;;;;;4.72;53.27;100425.84;5063596;28;20037;-64
2022/01/19 09:28:06;;;;;;;10.98;5.70;;;;;;;4.68;53.80;100429.41;5064455;28;20044;-64
2022/01/19 09:30:37;;;;;;;12.93;5.82;;;;;;;4.30;53.62;100345.94;5065123;28;20025;-64
2022/01/19 09:33:09;;;;;;;9.70;5.72;;;;;;;4.75;53.52;100420.53;5064813;28;20094;-64
2022/01/19 09:36:05;;;;;;;12.30;6.30;;;;;;;4.69;52.86;100419.75;5067741;28;20041;-65
2022/01/19 09:38:40;;;;;;;12.18;7.13;;;;;;;4.71;53.31;100410.09;5068070;28;20177;-65
2022/01/19 09:41:12;;;;;;;14.20;5.75;;;;;;;4.72;53.26;100399.56;5068048;28;20296;-65
2022/01/19 09:43:45;;;;;;;12.38;6.10;;;;;;;4.78;53.97;100401.25;5067685;28;20083;-65
2022/01/19 09:46:18;;;;;;;12.05;7.65;;;;;;;4.78;53.23;100394.22;5067637;28;20091;-65
2022/01/19 09:48:50;;;;;;;13.15;6.82;;;;;;;4.98;53.38;100391.31;5067380;28;20041;-64
2022/01/19 09:51:24;;;;;;;11.73;7.00;;;;;;;4.87;52.40;100394.97;5067562;28;20045;-65
2022/01/19 09:53:56;;;;;;;9.63;5.50;;;;;;;4.93;52.46;100381.78;5067849;28;20090;-65
2022/01/19 09:56:28;;;;;;;17.65;6.55;;;;;;;4.94;51.77;100379.13;5067581;28;20040;-65
2022/01/19 09:59:00;;;;;;;14.43;6.75;;;;;;;4.93;51.86;100366.88;5067767;28;20048;-65
2022/01/19 10:01:33;;;;;;;11.73;6.15;;;;;;;4.47;51.99;100294.06;5069242;28;20068;-65
2022/01/19 10:04:17;;;;;;;9.43;6.53;;;;;;;4.91;51.75;100354.66;5066362;28;20065;-65
2022/01/19 10:06:51;;;;;;;13.93;6.25;;;;;;;5.02;52.20;100345.72;5067623;28;20082;-65
2022/01/19 10:09:29;;;;;;;9.70;5.55;;;;;;;5.06;51.46;100330.78;5067231;28;20304;-65
2022/01/19 10:17:46;;;;;;;9.48;6.00;;;;;;;5.36;51.16;100310.94;5066836;28;20106;-65
2022/01/19 10:20:23;;;;;;;9.80;4.80;;;;;;;5.62;50.49;100299.94;5067138;28;20102;-65
2022/01/19 10:22:57;;;;;;;10.50;5.57;;;;;;;5.69;50.15;100296.28;5067199;28;20041;-65
2022/01/19 10:25:48;;;;;;;9.77;6.07;;;;;;;5.56;49.79;100279.03;5066980;28;20091;-65
2022/01/19 10:28:20;;;;;;;10.98;5.35;;;;;;;5.61;50.19;100282.41;5066996;28;20094;-65
2022/01/19 10:30:53;;;;;;;10.60;5.85;;;;;;;5.70;49.91;100271.72;5067145;28;20044;-65
2022/01/19 10:33:25;;;;;;;12.18;6.30;;;;;;;3.63;50.64;99947.44;5066067;28;20043;-64
2022/01/19 10:36:02;;;;;;;11.48;5.10;;;;;;;5.43;50.50;100237.19;5066293;28;20095;-65
2022/01/19 10:38:35;;;;;;;11.93;5.90;;;;;;;5.62;50.86;100256.09;5066836;28;20048;-65
2022/01/19 10:41:12;;;;;;;8.68;5.25;;;;;;;5.70;50.55;100241.00;5066090;28;20045;-65
2022/01/19 10:43:48;;;;;;;11.05;5.22;;;;;;;5.72;50.64;100247.09;5066702;28;20045;-65
2022/01/19 10:46:26;;;;;;;9.63;5.82;;;;;;;4.51;50.08;100099.75;5066655;28;20284;-65
2022/01/19 10:49:01;;;;;;;14.65;6.43;;;;;;;5.77;50.76;100225.97;5066535;28;20049;-65
2022/01/19 10:51:36;;;;;;;12.00;5.93;;;;;;;5.63;50.90;100221.00;5066717;28;20338;-65
2022/01/19 10:54:13;;;;;;;15.63;6.93;;;;;;;5.36;50.26;100154.09;5066650;28;20044;-66
2022/01/19 10:56:48;;;;;;;8.63;5.80;;;;;;;5.71;50.83;100207.69;5065632;28;20096;-65
2022/01/19 10:59:26;;;;;;;13.00;6.05;;;;;;;5.91;49.81;100202.84;5066707;28;20052;-65
2022/01/19 11:02:00;;;;;;;12.55;7.25;;;;;;;6.05;49.69;100192.88;5066382;28;20246;-65
2022/01/19 11:04:34;;;;;;;11.13;6.30;;;;;;;5.73;50.40;100135.75;5066065;28;20060;-66
2022/01/19 11:07:08;;;;;;;9.35;5.93;;;;;;;6.02;50.28;100187.69;5066376;28;20037;-65
2022/01/19 11:09:45;;;;;;;9.77;6.17;;;;;;;6.11;50.48;100168.19;5066467;28;20043;-65
2022/01/19 11:12:19;;;;;;;10.40;6.57;;;;;;;5.92;50.17;100109.00;5065707;28;20104;-65
2022/01/19 11:14:52;;;;;;;13.97;7.00;;;;;;;6.26;49.76;100156.41;5066134;28;20083;-65
2022/01/19 11:17:24;;;;;;;12.98;6.63;;;;;;;6.48;49.98;100148.81;5065934;28;20731;-65
2022/01/19 11:19:57;;;;;;;9.73;5.43;;;;;;;6.59;50.18;100145.00;5066319;28;20052;-65
2022/01/19 11:22:41;;;;;;;10.68;6.35;;;;;;;5.61;48.31;99995.78;5066323;28;20044;-66
2022/01/19 11:25:23;;;;;;;8.25;5.95;;;;;;;6.57;48.59;100128.38;5065265;28;20037;-66
2022/01/19 11:27:57;;;;;;;8.60;6.68;;;;;;;6.59;49.04;100121.31;5065671;28;20040;-65
2022/01/19 11:30:32;;;;;;;9.32;5.72;;;;;;;6.69;48.39;100127.19;5065773;28;20041;-65
2022/01/19 11:33:15;;;;;;;10.85;5.57;;;;;;;6.63;47.86;100117.69;5066322;28;20044;-65
2022/01/19 11:35:49;;;;;;;9.35;6.03;;;;;;;3.95;49.09;99672.34;5066216;28;20366;-64
2022/01/19 11:38:36;;;;;;;10.45;6.03;;;;;;;5.96;48.38;100011.53;5066200;28;20056;-65
2022/01/19 11:41:40;;;;;;;9.60;6.40;;;;;;;6.56;48.04;100102.09;5065696;28;20083;-65
2022/01/19 11:44:17;;;;;;;9.00;5.30;;;;;;;6.55;48.77;100087.19;5065693;28;20037;-66
2022/01/19 11:46:53;;;;;;;10.23;6.70;;;;;;;6.05;49.81;100000.78;5064797;28;20044;-66
2022/01/19 11:49:45;;;;;;;8.93;6.30;;;;;;;6.61;47.94;100085.25;5065418;28;20040;-66
2022/01/19 11:52:20;;;;;;;11.48;6.65;;;;;;;6.65;49.70;100084.25;5065795;28;20055;-66
2022/01/19 11:55:11;;;;;;;11.60;6.93;;;;;;;6.66;47.97;100069.31;5065617;28;20049;-66
2022/01/19 11:57:48;;;;;;;14.48;7.90;;;;;;;6.60;48.84;100083.53;5065059;28;20280;-66
2022/01/19 12:00:23;;;;;;;8.82;6.13;;;;;;;6.53;49.39;100066.16;5064848;28;20045;-65
2022/01/19 12:02:58;;;;;;;9.65;6.10;;;;;;;6.67;49.48;100058.75;5065546;28;20044;-66
2022/01/19 12:05:37;;;;;;;12.25;7.43;;;;;;;6.28;48.20;99978.22;5064373;28;20060;-65
2022/01/19 12:08:27;;;;;;;12.82;6.85;;;;;;;6.96;47.92;100046.53;5064817;28;20041;-65
2022/01/19 12:11:14;;;;;;;16.33;7.95;;;;;;;6.79;48.35;100040.88;5064695;28;20040;-65
2022/01/19 12:14:01;;;;;;;12.77;6.95;;;;;;;6.73;48.49;100028.72;5065480;28;20100;-65
2022/01/19 12:16:50;;;;;;;10.10;6.32;;;;;;;6.82;48.82;100017.97;5064959;28;20052;-64
2022/01/19 12:19:27;;;;;;;8.68;6.43;;;;;;;6.94;48.57;100016.72;5065683;28;20292;-65
2022/01/19 12:22:11;;;;;;;11.70;6.47;;;;;;;7.10;48.76;100011.84;5065340;28;20091;-65
2022/01/19 12:24:56;;;;;;;8.80;5.82;;;;;;;5.13;48.20;99663.22;5047779;28;20063;-65
2022/01/19 12:27:30;;;;;;;11.30;6.47;;;;;;;2.13;47.86;99157.38;5065747;28;20189;-65
2022/01/19 12:30:11;;;;;;;10.17;6.47;;;;;;;7.03;47.70;99992.72;5065608;28;20051;-65
2022/01/19 12:32:49;;;;;;;8.85;6.38;;;;;;;6.97;48.44;99991.16;5065253;28;20041;-66
2022/01/19 12:35:34;;;;;;;11.10;6.60;;;;;;;6.66;47.70;99945.53;5065295;28;20064;-65
2022/01/19 12:38:18;;;;;;;10.63;7.73;;;;;;;6.73;48.79;99986.59;5065872;28;20053;-65
2022/01/19 12:40:57;;;;;;;10.85;7.32;;;;;;;6.74;48.71;99988.31;5064897;28;20049;-65
2022/01/19 12:43:33;;;;;;;12.80;7.05;;;;;;;6.88;49.05;99982.66;5065113;28;20056;-65
2022/01/19 12:46:10;;;;;;;11.73;7.50;;;;;;;6.98;48.56;99978.84;5064239;28;20041;-65
2022/01/19 12:48:47;;;;;;;10.40;7.40;;;;;;;7.00;49.07;99969.09;5063794;28;20185;-65
2022/01/19 12:51:42;;;;;;;14.05;8.07;;;;;;;6.99;47.89;99948.94;5065096;28;20040;-65
2022/01/19 12:54:16;;;;;;;16.02;7.53;;;;;;;3.59;48.76;99391.00;5064190;28;20107;-66
2022/01/19 12:56:57;;;;;;;12.52;7.65;;;;;;;6.96;48.34;99943.75;5064307;28;20041;-65
2022/01/19 12:59:33;;;;;;;10.27;6.13;;;;;;;6.58;49.47;99845.69;5065184;28;20064;-66
2022/01/19 13:02:06;;;;;;;10.75;6.70;;;;;;;5.67;48.47;99696.72;5064487;28;20052;-66
2022/01/19 13:04:39;;;;;;;12.30;6.95;;;;;;;7.19;48.36;99933.34;5064790;28;20069;-66